sensor_id;sensor_type;location;lat;lon;timestamp;temperature;humidity
77700;DHT22;66867;42.658;23.320;2023-02-21T00:00:00;8.4;61
77700;DHT22;66867;42.658;23.320;2023-02-21T00:01:00;8.4;61
77700;DHT22;66867;42.658;23.320;2023-02-21T00:02:00;8.4;61
77700;DHT22;66867;42.658;23.320;2023-02-21T00:03:00;8.3;61
77700;DHT22;66867;42.658;23.320;2023-02-21T00:04:00;8.3;61
77700;DHT22;66867;42.658;23.320;2023-02-21T00:05:00;8.3;61
77700;DHT22;66867;42.658;23.320;2023-02-21T00:06:00;8.3;61
77700;DHT22;66867;42.658;23.320;2023-02-21T00:07:00;8.3;61
77700;DHT22;66867;42.658;23.320;2023-02-21T00:08:00;8.3;61
77700;DHT22;66867;42.658;23.320;2023-02-21T00:09:00;8.3;61
77700;DHT22;66867;42.658;23.320;2023-02-21T00:10:00;8.3;61
77700;DHT22;66867;42.658;23.320;2023-02-21T00:11:00;8.3;61
77700;DHT22;66867;42.658;23.320;2023-02-21T00:12:00;8.3;61
77700;DHT22;66867;42.658;23.320;2023-02-21T00:13:00;8.3;61
77700;DHT22;66867;42.658;23.320;2023-02-21T00:14:00;8.3;61
77700;DHT22;66867;42.658;23.320;2023-02-21T00:15:00;8.2;61
77700;DHT22;66867;42.658;23.320;2023-02-21T00:16:00;8.2;61
77700;DHT22;66867;42.658;23.320;2023-02-21T00:17:00;8.2;61
77700;DHT22;66867;42.658;23.320;2023-02-21T00:18:00;8.2;61
77700;DHT22;66867;42.658;23.320;2023-02-21T00:19:00;8.2;61
77700;DHT22;66867;42.658;23.320;2023-02-21T00:20:00;8.2;61
77700;DHT22;66867;42.658;23.320;2023-02-21T00:21:00;8.2;61
77700;DHT22;66867;42.658;23.320;2023-02-21T00:22:00;8.2;61
77700;DHT22;66867;42.658;23.320;2023-02-21T00:23:00;8.2;61
77700;DHT22;66867;42.658;23.320;2023-02-21T00:24:00;8.2;61
77700;DHT22;66867;42.658;23.320;2023-02-21T00:25:00;8.2;61
77700;DHT22;66867;42.658;23.320;2023-02-21T00:26:00;8.2;62
77700;DHT22;66867;42.658;23.320;2023-02-21T00:27:00;8.2;62
77700;DHT22;66867;42.658;23.320;2023-02-21T00:28:00;8.2;62
77700;DHT22;66867;42.658;23.320;2023-02-21T00:29:00;8.2;61
77700;DHT22;66867;42.658;23.320;2023-02-21T00:30:00;8.2;61
77700;DHT22;66867;42.658;23.320;2023-02-21T00:31:00;8.2;62
77700;DHT22;66867;42.658;23.320;2023-02-21T00:32:00;8.2;61
77700;DHT22;66867;42.658;23.320;2023-02-21T00:33:00;8.2;62
77700;DHT22;66867;42.658;23.320;2023-02-21T00:34:00;8.2;62
77700;DHT22;66867;42.658;23.320;2023-02-21T00:35:00;8.1;62
77700;DHT22;66867;42.658;23.320;2023-02-21T00:36:00;8.2;62
77700;DHT22;66867;42.658;23.320;2023-02-21T00:37:00;8.2;62
77700;DHT22;66867;42.658;23.320;2023-02-21T00:38:00;8.1;62
77700;DHT22;66867;42.658;23.320;2023-02-21T00:39:00;8.2;62
77700;DHT22;66867;42.658;23.320;2023-02-21T00:40:00;8.1;62
77700;DHT22;66867;42.658;23.320;2023-02-21T00:41:00;8.1;62
77700;DHT22;66867;42.658;23.320;2023-02-21T00:42:00;8.1;62
77700;DHT22;66867;42.658;23.320;2023-02-21T00:43:00;8.1;62
77700;DHT22;66867;42.658;23.320;2023-02-21T00:44:00;8.1;62
77700;DHT22;66867;42.658;23.320;2023-02-21T00:45:00;8.1;62
77700;DHT22;66867;42.658;23.320;2023-02-21T00:46:00;8.1;62
77700;DHT22;66867;42.658;23.320;2023-02-21T00:47:00;8.1;62
77700;DHT22;66867;42.658;23.320;2023-02-21T00:48:00;8.1;62
77700;DHT22;66867;42.658;23.320;2023-02-21T00:49:00;8.1;62
77700;DHT22;66867;42.658;23.320;2023-02-21T00:50:00;8.1;62
77700;DHT22;66867;42.658;23.320;2023-02-21T00:51:00;8.1;62
77700;DHT22;66867;42.658;23.320;2023-02-21T00:52:00;8.1;62
77700;DHT22;66867;42.658;23.320;2023-02-21T00:53:00;8.1;62
77700;DHT22;66867;42.658;23.320;2023-02-21T00:54:00;8.1;62
77700;DHT22;66867;42.658;23.320;2023-02-21T00:55:00;8.1;62
77700;DHT22;66867;42.658;23.320;2023-02-21T00:56:00;8.0;62
77700;DHT22;66867;42.658;23.320;2023-02-21T00:57:00;8.0;62
77700;DHT22;66867;42.658;23.320;2023-02-21T00:58:00;8.0;62
77700;DHT22;66867;42.658;23.320;2023-02-21T00:59:00;8.0;62
77700;DHT22;66867;42.658;23.320;2023-02-21T01:00:00;8.0;62
77700;DHT22;66867;42.658;23.320;2023-02-21T01:01:00;8.0;62
77700;DHT22;66867;42.658;23.320;2023-02-21T01:02:00;8.0;62
77700;DHT22;66867;42.658;23.320;2023-02-21T01:03:00;8.0;62
77700;DHT22;66867;42.658;23.320;2023-02-21T01:04:00;8.1;62
77700;DHT22;66867;42.658;23.320;2023-02-21T01:05:00;8.0;62
77700;DHT22;66867;42.658;23.320;2023-02-21T01:06:00;8.0;62
77700;DHT22;66867;42.658;23.320;2023-02-21T01:07:00;8.0;62
77700;DHT22;66867;42.658;23.320;2023-02-21T01:08:00;8.0;62
77700;DHT22;66867;42.658;23.320;2023-02-21T01:09:00;8.0;62
77700;DHT22;66867;42.658;23.320;2023-02-21T01:10:00;8.0;62
77700;DHT22;66867;42.658;23.320;2023-02-21T01:11:00;8.0;62
77700;DHT22;66867;42.658;23.320;2023-02-21T01:12:00;8.0;62
77700;DHT22;66867;42.658;23.320;2023-02-21T01:13:00;8.0;62
77700;DHT22;66867;42.658;23.320;2023-02-21T01:14:00;8.0;62
77700;DHT22;66867;42.658;23.320;2023-02-21T01:15:00;8.0;62
77700;DHT22;66867;42.658;23.320;2023-02-21T01:16:00;8.1;62
77700;DHT22;66867;42.658;23.320;2023-02-21T01:17:00;8.0;62
77700;DHT22;66867;42.658;23.320;2023-02-21T01:18:00;8.0;62
77700;DHT22;66867;42.658;23.320;2023-02-21T01:19:00;8.0;62
77700;DHT22;66867;42.658;23.320;2023-02-21T01:20:00;8.0;62
77700;DHT22;66867;42.658;23.320;2023-02-21T01:21:00;8.0;62
77700;DHT22;66867;42.658;23.320;2023-02-21T01:22:01;7.9;62
77700;DHT22;66867;42.658;23.320;2023-02-21T01:23:00;7.9;63
77700;DHT22;66867;42.658;23.320;2023-02-21T01:24:00;7.9;63
77700;DHT22;66867;42.658;23.320;2023-02-21T01:25:00;7.9;63
77700;DHT22;66867;42.658;23.320;2023-02-21T01:26:00;7.9;63
77700;DHT22;66867;42.658;23.320;2023-02-21T01:27:00;7.9;63
77700;DHT22;66867;42.658;23.320;2023-02-21T01:28:00;7.9;62
77700;DHT22;66867;42.658;23.320;2023-02-21T01:29:00;8.0;62
77700;DHT22;66867;42.658;23.320;2023-02-21T01:30:00;8.0;62
77700;DHT22;66867;42.658;23.320;2023-02-21T01:31:00;8.0;62
77700;DHT22;66867;42.658;23.320;2023-02-21T01:32:00;8.0;62
77700;DHT22;66867;42.658;23.320;2023-02-21T01:33:00;8.0;62
77700;DHT22;66867;42.658;23.320;2023-02-21T01:34:00;8.1;62
77700;DHT22;66867;42.658;23.320;2023-02-21T01:35:00;8.1;62
77700;DHT22;66867;42.658;23.320;2023-02-21T01:36:00;8.1;62
77700;DHT22;66867;42.658;23.320;2023-02-21T01:37:00;8.0;62
77700;DHT22;66867;42.658;23.320;2023-02-21T01:38:00;8.0;62
77700;DHT22;66867;42.658;23.320;2023-02-21T01:39:00;8.0;62
77700;DHT22;66867;42.658;23.320;2023-02-21T01:40:00;8.0;62
77700;DHT22;66867;42.658;23.320;2023-02-21T01:41:00;8.0;62
77700;DHT22;66867;42.658;23.320;2023-02-21T01:42:00;8.0;62
77700;DHT22;66867;42.658;23.320;2023-02-21T01:43:00;8.0;62
77700;DHT22;66867;42.658;23.320;2023-02-21T01:44:01;8.0;62
77700;DHT22;66867;42.658;23.320;2023-02-21T01:46:00;8.0;62
77700;DHT22;66867;42.658;23.320;2023-02-21T01:47:00;8.0;62
77700;DHT22;66867;42.658;23.320;2023-02-21T01:48:00;8.0;62
77700;DHT22;66867;42.658;23.320;2023-02-21T01:49:01;8.0;62
77700;DHT22;66867;42.658;23.320;2023-02-21T01:50:01;8.0;62
77700;DHT22;66867;42.658;23.320;2023-02-21T01:51:00;8.0;62
77700;DHT22;66867;42.658;23.320;2023-02-21T01:52:00;8.0;62
77700;DHT22;66867;42.658;23.320;2023-02-21T01:53:01;8.0;62
77700;DHT22;66867;42.658;23.320;2023-02-21T01:54:00;8.0;62
77700;DHT22;66867;42.658;23.320;2023-02-21T01:55:00;8.0;62
77700;DHT22;66867;42.658;23.320;2023-02-21T01:56:00;8.0;62
77700;DHT22;66867;42.658;23.320;2023-02-21T01:57:00;8.0;62
77700;DHT22;66867;42.658;23.320;2023-02-21T01:58:00;8.0;62
77700;DHT22;66867;42.658;23.320;2023-02-21T01:59:00;8.0;62
77700;DHT22;66867;42.658;23.320;2023-02-21T02:00:02;8.0;62
77700;DHT22;66867;42.658;23.320;2023-02-21T02:01:00;8.0;62
77700;DHT22;66867;42.658;23.320;2023-02-21T02:02:02;8.0;62
77700;DHT22;66867;42.658;23.320;2023-02-21T02:03:03;8.0;62
77700;DHT22;66867;42.658;23.320;2023-02-21T02:04:00;8.0;62
77700;DHT22;66867;42.658;23.320;2023-02-21T02:05:00;8.0;62
77700;DHT22;66867;42.658;23.320;2023-02-21T02:06:01;8.0;62
77700;DHT22;66867;42.658;23.320;2023-02-21T02:07:00;8.0;62
77700;DHT22;66867;42.658;23.320;2023-02-21T02:08:00;8.1;62
77700;DHT22;66867;42.658;23.320;2023-02-21T02:10:00;8.0;62
77700;DHT22;66867;42.658;23.320;2023-02-21T02:11:03;8.0;62
77700;DHT22;66867;42.658;23.320;2023-02-21T02:14:04;8.1;62
77700;DHT22;66867;42.658;23.320;2023-02-21T02:16:02;8.1;62
77700;DHT22;66867;42.658;23.320;2023-02-21T02:18:08;8.0;62
77700;DHT22;66867;42.658;23.320;2023-02-21T02:25:39;8.0;62
77700;DHT22;66867;42.658;23.320;2023-02-21T02:35:03;8.0;62
77700;DHT22;66867;42.658;23.320;2023-02-21T02:36:09;8.0;62
77700;DHT22;66867;42.658;23.320;2023-02-21T02:37:09;8.0;62
77700;DHT22;66867;42.658;23.320;2023-02-21T02:38:17;8.0;62
77700;DHT22;66867;42.658;23.320;2023-02-21T02:44:01;8.0;63
77700;DHT22;66867;42.658;23.320;2023-02-21T02:45:04;8.0;63
77700;DHT22;66867;42.658;23.320;2023-02-21T02:46:05;8.0;63
77700;DHT22;66867;42.658;23.320;2023-02-21T02:47:00;8.0;62
77700;DHT22;66867;42.658;23.320;2023-02-21T02:48:02;7.9;62
77700;DHT22;66867;42.658;23.320;2023-02-21T02:49:09;8.0;62
77700;DHT22;66867;42.658;23.320;2023-02-21T02:50:00;8.0;62
77700;DHT22;66867;42.658;23.320;2023-02-21T02:51:01;8.0;62
77700;DHT22;66867;42.658;23.320;2023-02-21T02:52:02;7.9;62
77700;DHT22;66867;42.658;23.320;2023-02-21T02:53:01;8.0;62
77700;DHT22;66867;42.658;23.320;2023-02-21T02:54:00;7.9;62
77700;DHT22;66867;42.658;23.320;2023-02-21T02:55:02;7.9;62
77700;DHT22;66867;42.658;23.320;2023-02-21T02:56:01;7.9;62
77700;DHT22;66867;42.658;23.320;2023-02-21T02:57:00;7.9;62
77700;DHT22;66867;42.658;23.320;2023-02-21T02:58:00;7.9;62
77700;DHT22;66867;42.658;23.320;2023-02-21T02:59:03;7.9;62
77700;DHT22;66867;42.658;23.320;2023-02-21T03:00:00;7.9;62
77700;DHT22;66867;42.658;23.320;2023-02-21T03:06:04;7.9;63
77700;DHT22;66867;42.658;23.320;2023-02-21T03:07:02;7.9;63
77700;DHT22;66867;42.658;23.320;2023-02-21T03:08:02;7.9;63
77700;DHT22;66867;42.658;23.320;2023-02-21T03:11:01;7.9;62
77700;DHT22;66867;42.658;23.320;2023-02-21T03:12:02;7.9;62
77700;DHT22;66867;42.658;23.320;2023-02-21T03:16:04;7.9;62
77700;DHT22;66867;42.658;23.320;2023-02-21T03:17:01;7.9;62
77700;DHT22;66867;42.658;23.320;2023-02-21T03:18:03;7.9;62
77700;DHT22;66867;42.658;23.320;2023-02-21T03:20:00;7.9;62
77700;DHT22;66867;42.658;23.320;2023-02-21T03:21:03;7.9;62
77700;DHT22;66867;42.658;23.320;2023-02-21T03:22:01;7.9;62
77700;DHT22;66867;42.658;23.320;2023-02-21T03:23:00;7.9;62
77700;DHT22;66867;42.658;23.320;2023-02-21T03:24:00;7.9;62
77700;DHT22;66867;42.658;23.320;2023-02-21T03:25:00;7.9;62
77700;DHT22;66867;42.658;23.320;2023-02-21T03:26:01;7.9;62
77700;DHT22;66867;42.658;23.320;2023-02-21T03:27:02;7.9;62
77700;DHT22;66867;42.658;23.320;2023-02-21T03:28:00;7.9;62
77700;DHT22;66867;42.658;23.320;2023-02-21T03:29:01;7.9;62
77700;DHT22;66867;42.658;23.320;2023-02-21T03:30:01;7.9;62
77700;DHT22;66867;42.658;23.320;2023-02-21T03:31:00;7.9;62
77700;DHT22;66867;42.658;23.320;2023-02-21T03:32:02;8.0;62
77700;DHT22;66867;42.658;23.320;2023-02-21T03:33:00;8.0;62
77700;DHT22;66867;42.658;23.320;2023-02-21T03:34:00;8.0;62
77700;DHT22;66867;42.658;23.320;2023-02-21T03:35:00;8.0;62
77700;DHT22;66867;42.658;23.320;2023-02-21T03:36:02;7.9;62
77700;DHT22;66867;42.658;23.320;2023-02-21T03:37:00;7.9;62
77700;DHT22;66867;42.658;23.320;2023-02-21T03:38:00;7.9;62
77700;DHT22;66867;42.658;23.320;2023-02-21T03:39:00;7.9;62
77700;DHT22;66867;42.658;23.320;2023-02-21T03:40:00;7.9;62
77700;DHT22;66867;42.658;23.320;2023-02-21T03:41:00;7.9;62
77700;DHT22;66867;42.658;23.320;2023-02-21T03:42:00;7.8;62
77700;DHT22;66867;42.658;23.320;2023-02-21T03:43:00;7.9;62
77700;DHT22;66867;42.658;23.320;2023-02-21T03:44:00;7.9;62
77700;DHT22;66867;42.658;23.320;2023-02-21T03:45:00;7.9;63
77700;DHT22;66867;42.658;23.320;2023-02-21T03:46:00;7.9;63
77700;DHT22;66867;42.658;23.320;2023-02-21T03:47:00;7.9;63
77700;DHT22;66867;42.658;23.320;2023-02-21T03:48:00;7.9;63
77700;DHT22;66867;42.658;23.320;2023-02-21T03:49:00;7.9;63
77700;DHT22;66867;42.658;23.320;2023-02-21T03:50:00;7.9;63
77700;DHT22;66867;42.658;23.320;2023-02-21T03:51:00;7.9;62
77700;DHT22;66867;42.658;23.320;2023-02-21T03:52:00;7.9;62
77700;DHT22;66867;42.658;23.320;2023-02-21T03:53:00;7.9;62
77700;DHT22;66867;42.658;23.320;2023-02-21T03:54:00;7.9;62
77700;DHT22;66867;42.658;23.320;2023-02-21T03:55:00;7.9;62
77700;DHT22;66867;42.658;23.320;2023-02-21T03:56:00;7.9;62
77700;DHT22;66867;42.658;23.320;2023-02-21T03:57:00;7.9;62
77700;DHT22;66867;42.658;23.320;2023-02-21T03:58:00;7.9;62
77700;DHT22;66867;42.658;23.320;2023-02-21T03:59:00;7.9;62
77700;DHT22;66867;42.658;23.320;2023-02-21T04:00:00;7.9;62
77700;DHT22;66867;42.658;23.320;2023-02-21T04:01:00;7.9;62
77700;DHT22;66867;42.658;23.320;2023-02-21T04:02:00;7.9;62
77700;DHT22;66867;42.658;23.320;2023-02-21T04:03:00;7.9;62
77700;DHT22;66867;42.658;23.320;2023-02-21T04:04:00;7.9;62
77700;DHT22;66867;42.658;23.320;2023-02-21T04:05:00;7.9;62
77700;DHT22;66867;42.658;23.320;2023-02-21T04:06:00;7.9;62
77700;DHT22;66867;42.658;23.320;2023-02-21T04:07:00;7.9;62
77700;DHT22;66867;42.658;23.320;2023-02-21T04:08:00;7.8;62
77700;DHT22;66867;42.658;23.320;2023-02-21T04:09:00;7.8;63
77700;DHT22;66867;42.658;23.320;2023-02-21T04:10:00;7.8;63
77700;DHT22;66867;42.658;23.320;2023-02-21T04:11:00;7.8;62
77700;DHT22;66867;42.658;23.320;2023-02-21T04:12:00;7.8;62
77700;DHT22;66867;42.658;23.320;2023-02-21T04:13:00;7.8;62
77700;DHT22;66867;42.658;23.320;2023-02-21T04:14:00;7.8;62
77700;DHT22;66867;42.658;23.320;2023-02-21T04:15:00;7.8;62
77700;DHT22;66867;42.658;23.320;2023-02-21T04:16:00;7.8;62
77700;DHT22;66867;42.658;23.320;2023-02-21T04:17:00;7.8;62
77700;DHT22;66867;42.658;23.320;2023-02-21T04:18:00;7.8;62
77700;DHT22;66867;42.658;23.320;2023-02-21T04:19:00;7.8;62
77700;DHT22;66867;42.658;23.320;2023-02-21T04:20:00;7.7;62
77700;DHT22;66867;42.658;23.320;2023-02-21T04:21:00;7.7;63
77700;DHT22;66867;42.658;23.320;2023-02-21T04:22:00;7.7;63
77700;DHT22;66867;42.658;23.320;2023-02-21T04:23:00;7.7;63
77700;DHT22;66867;42.658;23.320;2023-02-21T04:24:00;7.7;63
77700;DHT22;66867;42.658;23.320;2023-02-21T04:25:00;7.7;63
77700;DHT22;66867;42.658;23.320;2023-02-21T04:26:00;7.7;63
77700;DHT22;66867;42.658;23.320;2023-02-21T04:27:00;7.7;63
77700;DHT22;66867;42.658;23.320;2023-02-21T04:28:00;7.7;63
77700;DHT22;66867;42.658;23.320;2023-02-21T04:29:00;7.7;63
77700;DHT22;66867;42.658;23.320;2023-02-21T04:30:00;7.7;63
77700;DHT22;66867;42.658;23.320;2023-02-21T04:31:00;7.7;63
77700;DHT22;66867;42.658;23.320;2023-02-21T04:32:00;7.7;63
77700;DHT22;66867;42.658;23.320;2023-02-21T04:33:00;7.7;63
77700;DHT22;66867;42.658;23.320;2023-02-21T04:34:00;7.7;63
77700;DHT22;66867;42.658;23.320;2023-02-21T04:35:00;7.7;63
77700;DHT22;66867;42.658;23.320;2023-02-21T04:36:00;7.7;63
77700;DHT22;66867;42.658;23.320;2023-02-21T04:37:00;7.7;63
77700;DHT22;66867;42.658;23.320;2023-02-21T04:38:00;7.7;63
77700;DHT22;66867;42.658;23.320;2023-02-21T04:39:00;7.8;63
77700;DHT22;66867;42.658;23.320;2023-02-21T04:40:00;7.7;63
77700;DHT22;66867;42.658;23.320;2023-02-21T04:41:00;7.7;63
77700;DHT22;66867;42.658;23.320;2023-02-21T04:42:00;7.7;63
77700;DHT22;66867;42.658;23.320;2023-02-21T04:43:00;7.7;63
77700;DHT22;66867;42.658;23.320;2023-02-21T04:44:00;7.7;63
77700;DHT22;66867;42.658;23.320;2023-02-21T04:45:00;7.7;63
77700;DHT22;66867;42.658;23.320;2023-02-21T04:46:00;7.7;63
77700;DHT22;66867;42.658;23.320;2023-02-21T04:47:00;7.7;63
77700;DHT22;66867;42.658;23.320;2023-02-21T04:48:00;7.7;63
77700;DHT22;66867;42.658;23.320;2023-02-21T04:49:00;7.7;63
77700;DHT22;66867;42.658;23.320;2023-02-21T04:50:00;7.7;63
77700;DHT22;66867;42.658;23.320;2023-02-21T04:51:00;7.6;63
77700;DHT22;66867;42.658;23.320;2023-02-21T04:52:00;7.6;63
77700;DHT22;66867;42.658;23.320;2023-02-21T04:53:00;7.6;63
77700;DHT22;66867;42.658;23.320;2023-02-21T04:54:00;7.6;63
77700;DHT22;66867;42.658;23.320;2023-02-21T04:55:00;7.6;63
77700;DHT22;66867;42.658;23.320;2023-02-21T04:56:00;7.6;63
77700;DHT22;66867;42.658;23.320;2023-02-21T04:57:00;7.6;63
77700;DHT22;66867;42.658;23.320;2023-02-21T04:58:00;7.6;63
77700;DHT22;66867;42.658;23.320;2023-02-21T04:59:00;7.6;63
77700;DHT22;66867;42.658;23.320;2023-02-21T05:00:00;7.6;63
77700;DHT22;66867;42.658;23.320;2023-02-21T05:01:00;7.6;63
77700;DHT22;66867;42.658;23.320;2023-02-21T05:02:00;7.6;63
77700;DHT22;66867;42.658;23.320;2023-02-21T05:03:00;7.6;63
77700;DHT22;66867;42.658;23.320;2023-02-21T05:04:00;7.6;63
77700;DHT22;66867;42.658;23.320;2023-02-21T05:05:00;7.6;63
77700;DHT22;66867;42.658;23.320;2023-02-21T05:06:00;7.6;63
77700;DHT22;66867;42.658;23.320;2023-02-21T05:07:00;7.6;63
77700;DHT22;66867;42.658;23.320;2023-02-21T05:08:00;7.7;63
77700;DHT22;66867;42.658;23.320;2023-02-21T05:09:00;7.7;63
77700;DHT22;66867;42.658;23.320;2023-02-21T05:10:00;7.7;63
77700;DHT22;66867;42.658;23.320;2023-02-21T05:11:00;7.7;63
77700;DHT22;66867;42.658;23.320;2023-02-21T05:12:00;7.7;63
77700;DHT22;66867;42.658;23.320;2023-02-21T05:13:00;7.7;63
77700;DHT22;66867;42.658;23.320;2023-02-21T05:14:00;7.7;63
77700;DHT22;66867;42.658;23.320;2023-02-21T05:15:00;7.8;63
77700;DHT22;66867;42.658;23.320;2023-02-21T05:17:00;7.7;63
77700;DHT22;66867;42.658;23.320;2023-02-21T05:18:00;7.7;63
77700;DHT22;66867;42.658;23.320;2023-02-21T05:19:00;7.6;63
77700;DHT22;66867;42.658;23.320;2023-02-21T05:20:00;7.6;63
77700;DHT22;66867;42.658;23.320;2023-02-21T05:21:00;7.6;63
77700;DHT22;66867;42.658;23.320;2023-02-21T05:22:01;7.6;63
77700;DHT22;66867;42.658;23.320;2023-02-21T05:23:00;7.6;63
77700;DHT22;66867;42.658;23.320;2023-02-21T05:24:00;7.6;63
77700;DHT22;66867;42.658;23.320;2023-02-21T05:25:00;7.6;63
77700;DHT22;66867;42.658;23.320;2023-02-21T05:26:02;7.6;63
77700;DHT22;66867;42.658;23.320;2023-02-21T05:27:00;7.6;63
77700;DHT22;66867;42.658;23.320;2023-02-21T05:28:00;7.6;64
77700;DHT22;66867;42.658;23.320;2023-02-21T05:29:00;7.6;64
77700;DHT22;66867;42.658;23.320;2023-02-21T05:30:00;7.6;64
77700;DHT22;66867;42.658;23.320;2023-02-21T05:31:00;7.6;64
77700;DHT22;66867;42.658;23.320;2023-02-21T05:32:00;7.5;64
77700;DHT22;66867;42.658;23.320;2023-02-21T05:33:00;7.5;64
77700;DHT22;66867;42.658;23.320;2023-02-21T05:34:00;7.5;64
77700;DHT22;66867;42.658;23.320;2023-02-21T05:35:00;7.5;64
77700;DHT22;66867;42.658;23.320;2023-02-21T05:36:00;7.5;64
77700;DHT22;66867;42.658;23.320;2023-02-21T05:37:00;7.5;65
77700;DHT22;66867;42.658;23.320;2023-02-21T05:38:00;7.5;65
77700;DHT22;66867;42.658;23.320;2023-02-21T05:40:00;7.6;67
77700;DHT22;66867;42.658;23.320;2023-02-21T05:41:00;7.7;67
77700;DHT22;66867;42.658;23.320;2023-02-21T05:42:00;7.9;67
77700;DHT22;66867;42.658;23.320;2023-02-21T05:43:00;8.0;67
77700;DHT22;66867;42.658;23.320;2023-02-21T05:44:00;8.2;66
77700;DHT22;66867;42.658;23.320;2023-02-21T05:45:00;8.3;66
77700;DHT22;66867;42.658;23.320;2023-02-21T05:46:00;8.3;65
77700;DHT22;66867;42.658;23.320;2023-02-21T05:47:00;8.4;66
77700;DHT22;66867;42.658;23.320;2023-02-21T05:48:00;8.7;65
77700;DHT22;66867;42.658;23.320;2023-02-21T05:49:01;8.9;64
77700;DHT22;66867;42.658;23.320;2023-02-21T05:50:00;9.0;63
77700;DHT22;66867;42.658;23.320;2023-02-21T05:51:00;9.1;63
77700;DHT22;66867;42.658;23.320;2023-02-21T05:52:00;9.1;62
77700;DHT22;66867;42.658;23.320;2023-02-21T05:53:00;9.0;62
77700;DHT22;66867;42.658;23.320;2023-02-21T05:54:00;9.0;62
77700;DHT22;66867;42.658;23.320;2023-02-21T05:55:00;9.1;63
77700;DHT22;66867;42.658;23.320;2023-02-21T05:56:00;9.2;63
77700;DHT22;66867;42.658;23.320;2023-02-21T05:57:00;9.5;62
77700;DHT22;66867;42.658;23.320;2023-02-21T05:58:00;9.8;61
77700;DHT22;66867;42.658;23.320;2023-02-21T05:59:00;9.9;61
77700;DHT22;66867;42.658;23.320;2023-02-21T06:00:00;10.1;60
77700;DHT22;66867;42.658;23.320;2023-02-21T06:01:00;10.1;60
77700;DHT22;66867;42.658;23.320;2023-02-21T06:02:00;10.2;60
77700;DHT22;66867;42.658;23.320;2023-02-21T06:03:00;10.4;60
77700;DHT22;66867;42.658;23.320;2023-02-21T06:04:00;10.4;59
77700;DHT22;66867;42.658;23.320;2023-02-21T06:05:00;10.6;59
77700;DHT22;66867;42.658;23.320;2023-02-21T06:06:00;10.8;59
77700;DHT22;66867;42.658;23.320;2023-02-21T06:07:00;11.0;58
77700;DHT22;66867;42.658;23.320;2023-02-21T06:08:00;11.0;58
77700;DHT22;66867;42.658;23.320;2023-02-21T06:09:00;11.2;57
77700;DHT22;66867;42.658;23.320;2023-02-21T06:10:00;11.3;57
77700;DHT22;66867;42.658;23.320;2023-02-21T06:11:00;11.4;56
77700;DHT22;66867;42.658;23.320;2023-02-21T06:12:00;11.5;56
77700;DHT22;66867;42.658;23.320;2023-02-21T06:13:00;11.7;55
77700;DHT22;66867;42.658;23.320;2023-02-21T06:14:01;11.7;55
77700;DHT22;66867;42.658;23.320;2023-02-21T06:15:00;11.8;55
77700;DHT22;66867;42.658;23.320;2023-02-21T06:16:00;12.0;55
77700;DHT22;66867;42.658;23.320;2023-02-21T06:17:00;12.1;54
77700;DHT22;66867;42.658;23.320;2023-02-21T06:18:00;12.2;54
77700;DHT22;66867;42.658;23.320;2023-02-21T06:19:00;12.2;54
77700;DHT22;66867;42.658;23.320;2023-02-21T06:20:00;12.4;54
77700;DHT22;66867;42.658;23.320;2023-02-21T06:21:00;12.5;54
77700;DHT22;66867;42.658;23.320;2023-02-21T06:22:00;12.5;54
77700;DHT22;66867;42.658;23.320;2023-02-21T06:23:00;12.5;53
77700;DHT22;66867;42.658;23.320;2023-02-21T06:24:00;12.5;54
77700;DHT22;66867;42.658;23.320;2023-02-21T06:25:00;12.5;54
77700;DHT22;66867;42.658;23.320;2023-02-21T06:26:00;12.7;53
77700;DHT22;66867;42.658;23.320;2023-02-21T06:27:00;12.8;53
77700;DHT22;66867;42.658;23.320;2023-02-21T06:28:00;13.0;52
77700;DHT22;66867;42.658;23.320;2023-02-21T06:29:00;13.0;52
77700;DHT22;66867;42.658;23.320;2023-02-21T06:30:00;13.1;52
77700;DHT22;66867;42.658;23.320;2023-02-21T06:31:01;13.1;52
77700;DHT22;66867;42.658;23.320;2023-02-21T06:32:00;13.3;52
77700;DHT22;66867;42.658;23.320;2023-02-21T06:33:00;13.5;51
77700;DHT22;66867;42.658;23.320;2023-02-21T06:34:00;13.6;52
77700;DHT22;66867;42.658;23.320;2023-02-21T06:35:00;13.8;51
77700;DHT22;66867;42.658;23.320;2023-02-21T06:36:04;13.9;51
77700;DHT22;66867;42.658;23.320;2023-02-21T06:37:00;14.0;50
77700;DHT22;66867;42.658;23.320;2023-02-21T06:38:00;14.0;50
77700;DHT22;66867;42.658;23.320;2023-02-21T06:39:00;14.1;50
77700;DHT22;66867;42.658;23.320;2023-02-21T06:40:00;14.2;50
77700;DHT22;66867;42.658;23.320;2023-02-21T06:41:03;14.3;49
77700;DHT22;66867;42.658;23.320;2023-02-21T06:42:00;14.3;49
77700;DHT22;66867;42.658;23.320;2023-02-21T06:43:00;14.4;49
77700;DHT22;66867;42.658;23.320;2023-02-21T06:44:00;14.6;49
77700;DHT22;66867;42.658;23.320;2023-02-21T06:50:00;15.0;48
77700;DHT22;66867;42.658;23.320;2023-02-21T06:51:00;15.0;48
77700;DHT22;66867;42.658;23.320;2023-02-21T06:52:00;15.1;47
77700;DHT22;66867;42.658;23.320;2023-02-21T06:53:00;15.3;47
77700;DHT22;66867;42.658;23.320;2023-02-21T06:54:00;15.3;47
77700;DHT22;66867;42.658;23.320;2023-02-21T06:55:00;15.2;46
77700;DHT22;66867;42.658;23.320;2023-02-21T06:56:00;15.2;46
77700;DHT22;66867;42.658;23.320;2023-02-21T06:57:00;15.2;47
77700;DHT22;66867;42.658;23.320;2023-02-21T06:58:00;15.4;47
77700;DHT22;66867;42.658;23.320;2023-02-21T06:59:00;15.6;46
77700;DHT22;66867;42.658;23.320;2023-02-21T07:00:00;15.6;46
77700;DHT22;66867;42.658;23.320;2023-02-21T07:02:00;15.6;46
77700;DHT22;66867;42.658;23.320;2023-02-21T07:03:00;15.6;46
77700;DHT22;66867;42.658;23.320;2023-02-21T07:04:00;15.6;46
77700;DHT22;66867;42.658;23.320;2023-02-21T07:05:00;15.7;46
77700;DHT22;66867;42.658;23.320;2023-02-21T07:06:00;16.0;46
77700;DHT22;66867;42.658;23.320;2023-02-21T07:07:00;16.1;45
77700;DHT22;66867;42.658;23.320;2023-02-21T07:08:00;16.2;46
77700;DHT22;66867;42.658;23.320;2023-02-21T07:09:00;16.2;45
77700;DHT22;66867;42.658;23.320;2023-02-21T07:10:00;16.3;45
77700;DHT22;66867;42.658;23.320;2023-02-21T07:11:00;16.2;45
77700;DHT22;66867;42.658;23.320;2023-02-21T07:12:00;16.3;45
77700;DHT22;66867;42.658;23.320;2023-02-21T07:13:00;16.4;44
77700;DHT22;66867;42.658;23.320;2023-02-21T07:14:00;16.4;45
77700;DHT22;66867;42.658;23.320;2023-02-21T07:15:00;16.5;44
77700;DHT22;66867;42.658;23.320;2023-02-21T07:16:00;16.5;44
77700;DHT22;66867;42.658;23.320;2023-02-21T07:17:00;16.6;44
77700;DHT22;66867;42.658;23.320;2023-02-21T07:18:00;16.8;44
77700;DHT22;66867;42.658;23.320;2023-02-21T07:19:00;16.8;44
77700;DHT22;66867;42.658;23.320;2023-02-21T07:20:00;16.9;43
77700;DHT22;66867;42.658;23.320;2023-02-21T07:21:00;17.0;44
77700;DHT22;66867;42.658;23.320;2023-02-21T07:22:00;17.0;43
77700;DHT22;66867;42.658;23.320;2023-02-21T07:23:00;16.9;43
77700;DHT22;66867;42.658;23.320;2023-02-21T07:24:00;16.9;43
77700;DHT22;66867;42.658;23.320;2023-02-21T07:25:00;16.9;43
77700;DHT22;66867;42.658;23.320;2023-02-21T07:26:00;16.8;43
77700;DHT22;66867;42.658;23.320;2023-02-21T07:27:00;16.7;43
77700;DHT22;66867;42.658;23.320;2023-02-21T07:28:00;16.7;43